In Rescue
 
Open Full Screen Window  High Contrast Mode
Wind Gusting 00 knots
09
November 29, 2022 9:21 AM EST
Weather Information
Wind Direction
  130 °
Wind Speed
  09 kt (10 mph)
Wind Gust
  00 kt (0 mph)
Altimeter
29.92 in
Visibility
7 SM
Temperature
07° C
45° F
Dewpoint
04° C
39° F
Humidity
81%
Sky Condition
Broken @ 3,000 ft
Scattered @ 2,300 ft
MVFR

METAR KHAI 291421Z AUTO 13009KT 7SM SCT023 BKN030 07/04 A2992 RMK AO2

FAA Disclaimer: The data displayed is for advisory purposes only and is not to be used for flight planning or operations.